sensor_id;sensor_type;location;lat;lon;timestamp;temperature;humidity
2202;DHT22;1107;48.654;9.250;2023-03-23T00:01:05;13.40;54.50
2202;DHT22;1107;48.654;9.250;2023-03-23T00:03:35;13.40;55.20
2202;DHT22;1107;48.654;9.250;2023-03-23T00:06:04;13.30;56.80
2202;DHT22;1107;48.654;9.250;2023-03-23T00:08:32;13.30;58.80
2202;DHT22;1107;48.654;9.250;2023-03-23T00:10:59;13.30;59.10
2202;DHT22;1107;48.654;9.250;2023-03-23T00:13:28;13.30;61.00
2202;DHT22;1107;48.654;9.250;2023-03-23T00:15:55;13.30;61.20
2202;DHT22;1107;48.654;9.250;2023-03-23T00:18:23;13.30;64.10
2202;DHT22;1107;48.654;9.250;2023-03-23T00:20:52;13.30;66.60
2202;DHT22;1107;48.654;9.250;2023-03-23T00:23:22;13.30;68.60
2202;DHT22;1107;48.654;9.250;2023-03-23T00:25:51;13.30;78.00
2202;DHT22;1107;48.654;9.250;2023-03-23T00:28:20;13.30;79.50
2202;DHT22;1107;48.654;9.250;2023-03-23T00:30:55;13.20;82.20
2202;DHT22;1107;48.654;9.250;2023-03-23T00:33:22;13.20;85.90
2202;DHT22;1107;48.654;9.250;2023-03-23T00:35:49;13.20;88.70
2202;DHT22;1107;48.654;9.250;2023-03-23T00:38:18;13.10;89.80
2202;DHT22;1107;48.654;9.250;2023-03-23T00:40:46;13.10;90.40
2202;DHT22;1107;48.654;9.250;2023-03-23T00:43:14;13.10;91.00
2202;DHT22;1107;48.654;9.250;2023-03-23T00:45:42;13.10;91.20
2202;DHT22;1107;48.654;9.250;2023-03-23T00:48:10;13.10;91.50
2202;DHT22;1107;48.654;9.250;2023-03-23T00:50:38;13.10;93.40
2202;DHT22;1107;48.654;9.250;2023-03-23T00:53:05;13.10;94.60
2202;DHT22;1107;48.654;9.250;2023-03-23T00:55:32;13.10;95.00
2202;DHT22;1107;48.654;9.250;2023-03-23T00:58:00;13.10;96.20
2202;DHT22;1107;48.654;9.250;2023-03-23T01:00:27;13.10;96.90
2202;DHT22;1107;48.654;9.250;2023-03-23T01:02:54;13.20;99.20
2202;DHT22;1107;48.654;9.250;2023-03-23T01:05:21;13.10;99.20
2202;DHT22;1107;48.654;9.250;2023-03-23T01:07:48;13.10;99.90
2202;DHT22;1107;48.654;9.250;2023-03-23T01:10:15;13.10;99.90
2202;DHT22;1107;48.654;9.250;2023-03-23T01:12:44;13.10;99.90
2202;DHT22;1107;48.654;9.250;2023-03-23T01:15:17;13.10;99.90
2202;DHT22;1107;48.654;9.250;2023-03-23T01:17:45;13.00;99.90
2202;DHT22;1107;48.654;9.250;2023-03-23T01:20:13;13.00;99.90
2202;DHT22;1107;48.654;9.250;2023-03-23T01:22:41;13.00;99.90
2202;DHT22;1107;48.654;9.250;2023-03-23T01:25:10;13.00;99.90
2202;DHT22;1107;48.654;9.250;2023-03-23T01:27:37;13.00;99.90
2202;DHT22;1107;48.654;9.250;2023-03-23T01:30:07;13.00;99.90
2202;DHT22;1107;48.654;9.250;2023-03-23T01:32:35;13.00;99.90
2202;DHT22;1107;48.654;9.250;2023-03-23T01:35:03;13.00;99.90
2202;DHT22;1107;48.654;9.250;2023-03-23T01:37:30;13.00;99.90
2202;DHT22;1107;48.654;9.250;2023-03-23T01:39:58;13.00;99.90
2202;DHT22;1107;48.654;9.250;2023-03-23T01:42:29;13.00;99.90
2202;DHT22;1107;48.654;9.250;2023-03-23T01:45:21;13.00;99.90
2202;DHT22;1107;48.654;9.250;2023-03-23T01:47:53;13.00;99.90
2202;DHT22;1107;48.654;9.250;2023-03-23T01:50:24;13.00;99.90
2202;DHT22;1107;48.654;9.250;2023-03-23T01:52:53;13.00;99.90
2202;DHT22;1107;48.654;9.250;2023-03-23T01:55:24;13.00;99.90
2202;DHT22;1107;48.654;9.250;2023-03-23T01:57:54;12.90;99.90
2202;DHT22;1107;48.654;9.250;2023-03-23T02:00:21;12.90;99.90
2202;DHT22;1107;48.654;9.250;2023-03-23T02:02:51;12.90;99.90
2202;DHT22;1107;48.654;9.250;2023-03-23T02:05:23;12.80;99.90
2202;DHT22;1107;48.654;9.250;2023-03-23T02:07:52;12.80;99.90
2202;DHT22;1107;48.654;9.250;2023-03-23T02:10:20;12.80;99.90
2202;DHT22;1107;48.654;9.250;2023-03-23T02:12:47;12.80;99.90
2202;DHT22;1107;48.654;9.250;2023-03-23T02:15:14;12.80;99.90
2202;DHT22;1107;48.654;9.250;2023-03-23T02:17:48;12.80;99.90
2202;DHT22;1107;48.654;9.250;2023-03-23T02:20:29;12.80;99.90
2202;DHT22;1107;48.654;9.250;2023-03-23T02:23:41;12.90;99.90
2202;DHT22;1107;48.654;9.250;2023-03-23T02:26:23;12.90;99.90
2202;DHT22;1107;48.654;9.250;2023-03-23T02:32:08;12.90;99.90
2202;DHT22;1107;48.654;9.250;2023-03-23T02:34:41;12.90;99.90
2202;DHT22;1107;48.654;9.250;2023-03-23T02:37:14;12.90;99.90
2202;DHT22;1107;48.654;9.250;2023-03-23T02:39:45;12.90;99.90
2202;DHT22;1107;48.654;9.250;2023-03-23T02:42:18;12.80;99.90
2202;DHT22;1107;48.654;9.250;2023-03-23T02:44:47;12.90;99.90
2202;DHT22;1107;48.654;9.250;2023-03-23T02:47:20;12.80;99.90
2202;DHT22;1107;48.654;9.250;2023-03-23T02:49:53;12.80;99.90
2202;DHT22;1107;48.654;9.250;2023-03-23T02:52:22;12.70;99.90
2202;DHT22;1107;48.654;9.250;2023-03-23T02:54:51;12.70;99.90
2202;DHT22;1107;48.654;9.250;2023-03-23T02:57:20;12.70;99.90
2202;DHT22;1107;48.654;9.250;2023-03-23T02:59:47;12.70;99.90
2202;DHT22;1107;48.654;9.250;2023-03-23T03:02:17;12.80;99.90
2202;DHT22;1107;48.654;9.250;2023-03-23T03:04:51;12.80;99.90
2202;DHT22;1107;48.654;9.250;2023-03-23T03:07:33;12.80;99.90
2202;DHT22;1107;48.654;9.250;2023-03-23T03:10:06;12.70;99.90
2202;DHT22;1107;48.654;9.250;2023-03-23T03:12:44;12.70;99.90
2202;DHT22;1107;48.654;9.250;2023-03-23T03:15:19;12.70;99.90
2202;DHT22;1107;48.654;9.250;2023-03-23T03:17:51;12.60;99.90
2202;DHT22;1107;48.654;9.250;2023-03-23T03:20:22;12.60;99.90
2202;DHT22;1107;48.654;9.250;2023-03-23T03:22:53;12.60;99.90
2202;DHT22;1107;48.654;9.250;2023-03-23T03:25:22;12.50;99.90
2202;DHT22;1107;48.654;9.250;2023-03-23T03:27:50;12.50;99.90
2202;DHT22;1107;48.654;9.250;2023-03-23T03:30:20;12.50;99.90
2202;DHT22;1107;48.654;9.250;2023-03-23T03:32:49;12.50;99.90
2202;DHT22;1107;48.654;9.250;2023-03-23T03:35:21;12.50;99.90
2202;DHT22;1107;48.654;9.250;2023-03-23T03:37:48;12.50;99.90
2202;DHT22;1107;48.654;9.250;2023-03-23T03:40:18;12.60;99.90
2202;DHT22;1107;48.654;9.250;2023-03-23T03:42:46;12.60;99.90
2202;DHT22;1107;48.654;9.250;2023-03-23T03:45:15;12.70;99.90
2202;DHT22;1107;48.654;9.250;2023-03-23T03:47:42;12.80;99.90
2202;DHT22;1107;48.654;9.250;2023-03-23T03:50:09;12.90;99.90
2202;DHT22;1107;48.654;9.250;2023-03-23T03:52:38;13.00;99.90
2202;DHT22;1107;48.654;9.250;2023-03-23T03:55:07;13.10;99.90
2202;DHT22;1107;48.654;9.250;2023-03-23T03:57:34;13.20;99.90
2202;DHT22;1107;48.654;9.250;2023-03-23T04:00:02;13.20;99.90
2202;DHT22;1107;48.654;9.250;2023-03-23T04:02:38;13.30;99.90
2202;DHT22;1107;48.654;9.250;2023-03-23T04:05:06;13.30;99.90
2202;DHT22;1107;48.654;9.250;2023-03-23T04:07:35;13.30;99.90
2202;DHT22;1107;48.654;9.250;2023-03-23T04:10:07;13.40;99.90
2202;DHT22;1107;48.654;9.250;2023-03-23T04:12:35;13.40;99.90
2202;DHT22;1107;48.654;9.250;2023-03-23T04:15:03;13.40;99.90
2202;DHT22;1107;48.654;9.250;2023-03-23T04:17:30;13.40;99.90
2202;DHT22;1107;48.654;9.250;2023-03-23T04:19:58;13.40;99.90
2202;DHT22;1107;48.654;9.250;2023-03-23T04:22:27;13.40;99.90
2202;DHT22;1107;48.654;9.250;2023-03-23T04:24:57;13.40;99.90
2202;DHT22;1107;48.654;9.250;2023-03-23T04:27:28;13.40;99.90
2202;DHT22;1107;48.654;9.250;2023-03-23T04:29:55;13.40;99.90
2202;DHT22;1107;48.654;9.250;2023-03-23T04:32:24;13.40;99.90
2202;DHT22;1107;48.654;9.250;2023-03-23T04:34:54;13.50;99.90
2202;DHT22;1107;48.654;9.250;2023-03-23T04:37:21;13.50;99.90
2202;DHT22;1107;48.654;9.250;2023-03-23T04:39:51;13.50;99.90
2202;DHT22;1107;48.654;9.250;2023-03-23T04:42:28;13.50;99.90
2202;DHT22;1107;48.654;9.250;2023-03-23T04:44:55;13.50;99.90
2202;DHT22;1107;48.654;9.250;2023-03-23T04:47:23;13.50;99.90
2202;DHT22;1107;48.654;9.250;2023-03-23T04:49:50;13.50;99.90
2202;DHT22;1107;48.654;9.250;2023-03-23T04:52:18;13.50;99.90
2202;DHT22;1107;48.654;9.250;2023-03-23T04:54:46;13.40;99.90
2202;DHT22;1107;48.654;9.250;2023-03-23T04:57:13;13.40;99.90
2202;DHT22;1107;48.654;9.250;2023-03-23T04:59:42;13.30;99.90
2202;DHT22;1107;48.654;9.250;2023-03-23T05:02:09;13.30;99.90
2202;DHT22;1107;48.654;9.250;2023-03-23T05:04:38;13.30;99.90
2202;DHT22;1107;48.654;9.250;2023-03-23T05:07:06;13.30;99.90
2202;DHT22;1107;48.654;9.250;2023-03-23T05:09:34;13.40;99.90
2202;DHT22;1107;48.654;9.250;2023-03-23T05:12:04;13.40;99.90
2202;DHT22;1107;48.654;9.250;2023-03-23T05:14:31;13.50;99.90
2202;DHT22;1107;48.654;9.250;2023-03-23T05:17:00;13.50;99.90
2202;DHT22;1107;48.654;9.250;2023-03-23T05:19:27;13.50;99.90
2202;DHT22;1107;48.654;9.250;2023-03-23T05:21:56;13.50;99.90
2202;DHT22;1107;48.654;9.250;2023-03-23T05:24:28;13.50;99.90
2202;DHT22;1107;48.654;9.250;2023-03-23T05:26:56;13.50;99.90
2202;DHT22;1107;48.654;9.250;2023-03-23T05:29:23;13.50;99.90
2202;DHT22;1107;48.654;9.250;2023-03-23T05:31:51;13.50;99.90
2202;DHT22;1107;48.654;9.250;2023-03-23T05:34:22;13.50;99.90
2202;DHT22;1107;48.654;9.250;2023-03-23T05:36:51;13.50;99.90
2202;DHT22;1107;48.654;9.250;2023-03-23T05:39:19;13.50;99.90
2202;DHT22;1107;48.654;9.250;2023-03-23T05:41:46;13.50;99.90
2202;DHT22;1107;48.654;9.250;2023-03-23T05:44:13;13.40;99.90
2202;DHT22;1107;48.654;9.250;2023-03-23T05:46:40;13.40;99.90
2202;DHT22;1107;48.654;9.250;2023-03-23T05:49:07;13.40;99.90
2202;DHT22;1107;48.654;9.250;2023-03-23T05:51:35;13.50;99.90
2202;DHT22;1107;48.654;9.250;2023-03-23T05:54:03;13.50;99.90
2202;DHT22;1107;48.654;9.250;2023-03-23T05:56:30;13.50;99.90
2202;DHT22;1107;48.654;9.250;2023-03-23T05:58:57;13.60;99.90
2202;DHT22;1107;48.654;9.250;2023-03-23T06:01:24;13.70;99.90
2202;DHT22;1107;48.654;9.250;2023-03-23T06:03:51;13.70;99.90
2202;DHT22;1107;48.654;9.250;2023-03-23T06:06:19;13.70;99.90
2202;DHT22;1107;48.654;9.250;2023-03-23T06:08:48;13.70;99.90
2202;DHT22;1107;48.654;9.250;2023-03-23T06:11:15;13.80;99.90
2202;DHT22;1107;48.654;9.250;2023-03-23T06:13:43;13.80;99.90
2202;DHT22;1107;48.654;9.250;2023-03-23T06:16:10;13.80;99.90
2202;DHT22;1107;48.654;9.250;2023-03-23T06:18:36;13.90;99.90
2202;DHT22;1107;48.654;9.250;2023-03-23T06:21:06;13.90;99.90
2202;DHT22;1107;48.654;9.250;2023-03-23T06:23:33;13.90;99.90
2202;DHT22;1107;48.654;9.250;2023-03-23T06:26:03;13.90;99.90
2202;DHT22;1107;48.654;9.250;2023-03-23T06:28:32;14.00;99.90
2202;DHT22;1107;48.654;9.250;2023-03-23T06:30:59;14.00;99.90
2202;DHT22;1107;48.654;9.250;2023-03-23T06:33:27;14.00;99.90
2202;DHT22;1107;48.654;9.250;2023-03-23T06:35:54;14.10;99.90
2202;DHT22;1107;48.654;9.250;2023-03-23T06:38:21;14.10;99.90
2202;DHT22;1107;48.654;9.250;2023-03-23T06:40:48;14.20;99.90
2202;DHT22;1107;48.654;9.250;2023-03-23T06:43:19;14.20;99.90
2202;DHT22;1107;48.654;9.250;2023-03-23T06:45:46;14.20;99.90
2202;DHT22;1107;48.654;9.250;2023-03-23T06:48:13;14.20;99.90
2202;DHT22;1107;48.654;9.250;2023-03-23T06:50:42;14.20;99.90
2202;DHT22;1107;48.654;9.250;2023-03-23T06:53:10;14.20;99.90
2202;DHT22;1107;48.654;9.250;2023-03-23T06:55:37;14.20;99.90
2202;DHT22;1107;48.654;9.250;2023-03-23T06:58:04;14.30;99.90
2202;DHT22;1107;48.654;9.250;2023-03-23T07:00:33;14.40;99.90
2202;DHT22;1107;48.654;9.250;2023-03-23T07:03:00;14.40;99.90
2202;DHT22;1107;48.654;9.250;2023-03-23T07:05:28;14.50;99.90
2202;DHT22;1107;48.654;9.250;2023-03-23T07:07:55;14.60;99.90
2202;DHT22;1107;48.654;9.250;2023-03-23T07:10:22;14.70;99.90
2202;DHT22;1107;48.654;9.250;2023-03-23T07:12:50;14.70;99.90
2202;DHT22;1107;48.654;9.250;2023-03-23T07:15:17;14.80;99.90
2202;DHT22;1107;48.654;9.250;2023-03-23T07:17:47;14.80;99.90
2202;DHT22;1107;48.654;9.250;2023-03-23T07:20:14;14.80;99.90
2202;DHT22;1107;48.654;9.250;2023-03-23T07:22:41;14.80;99.90
2202;DHT22;1107;48.654;9.250;2023-03-23T07:25:08;14.80;99.90
2202;DHT22;1107;48.654;9.250;2023-03-23T07:27:35;14.80;99.90
2202;DHT22;1107;48.654;9.250;2023-03-23T07:30:04;14.80;99.90
2202;DHT22;1107;48.654;9.250;2023-03-23T07:32:31;14.80;99.90
2202;DHT22;1107;48.654;9.250;2023-03-23T07:34:59;14.70;99.90
2202;DHT22;1107;48.654;9.250;2023-03-23T07:37:26;14.70;99.90
2202;DHT22;1107;48.654;9.250;2023-03-23T07:39:54;14.70;99.90
2202;DHT22;1107;48.654;9.250;2023-03-23T07:42:21;14.70;99.90
2202;DHT22;1107;48.654;9.250;2023-03-23T07:44:48;14.60;99.90
2202;DHT22;1107;48.654;9.250;2023-03-23T07:47:15;14.70;99.90
2202;DHT22;1107;48.654;9.250;2023-03-23T07:49:43;14.60;99.90
2202;DHT22;1107;48.654;9.250;2023-03-23T07:52:11;14.70;99.90
2202;DHT22;1107;48.654;9.250;2023-03-23T07:54:38;14.70;99.90
2202;DHT22;1107;48.654;9.250;2023-03-23T07:57:06;14.80;99.90
2202;DHT22;1107;48.654;9.250;2023-03-23T07:59:33;14.90;99.90
2202;DHT22;1107;48.654;9.250;2023-03-23T08:02:00;15.00;99.90
2202;DHT22;1107;48.654;9.250;2023-03-23T08:04:27;15.00;99.90
2202;DHT22;1107;48.654;9.250;2023-03-23T08:06:54;15.10;99.90
2202;DHT22;1107;48.654;9.250;2023-03-23T08:09:23;15.10;99.90
2202;DHT22;1107;48.654;9.250;2023-03-23T08:11:50;15.20;99.90
2202;DHT22;1107;48.654;9.250;2023-03-23T08:14:17;15.20;99.90
2202;DHT22;1107;48.654;9.250;2023-03-23T08:16:44;15.30;99.90
2202;DHT22;1107;48.654;9.250;2023-03-23T08:19:11;15.40;99.90
2202;DHT22;1107;48.654;9.250;2023-03-23T08:21:38;15.50;99.90
2202;DHT22;1107;48.654;9.250;2023-03-23T08:24:05;15.60;99.90
2202;DHT22;1107;48.654;9.250;2023-03-23T08:26:33;15.50;99.90
2202;DHT22;1107;48.654;9.250;2023-03-23T08:29:00;15.50;99.90
2202;DHT22;1107;48.654;9.250;2023-03-23T08:31:28;15.50;99.90
2202;DHT22;1107;48.654;9.250;2023-03-23T08:33:55;15.80;99.90
2202;DHT22;1107;48.654;9.250;2023-03-23T08:36:23;16.00;99.90
2202;DHT22;1107;48.654;9.250;2023-03-23T08:38:50;16.10;99.90
2202;DHT22;1107;48.654;9.250;2023-03-23T08:41:18;16.20;99.90
2202;DHT22;1107;48.654;9.250;2023-03-23T08:43:46;16.30;99.90
2202;DHT22;1107;48.654;9.250;2023-03-23T08:46:13;16.30;99.90
2202;DHT22;1107;48.654;9.250;2023-03-23T08:48:40;16.20;99.90
2202;DHT22;1107;48.654;9.250;2023-03-23T08:51:09;16.00;99.90
2202;DHT22;1107;48.654;9.250;2023-03-23T08:53:37;16.00;99.90
2202;DHT22;1107;48.654;9.250;2023-03-23T08:56:04;16.00;99.90
2202;DHT22;1107;48.654;9.250;2023-03-23T08:58:32;15.90;99.90
2202;DHT22;1107;48.654;9.250;2023-03-23T09:01:01;15.80;99.90
2202;DHT22;1107;48.654;9.250;2023-03-23T09:03:28;15.70;99.90
2202;DHT22;1107;48.654;9.250;2023-03-23T09:05:58;15.60;99.90
2202;DHT22;1107;48.654;9.250;2023-03-23T09:08:27;15.50;99.90
2202;DHT22;1107;48.654;9.250;2023-03-23T09:10:54;15.50;99.90
2202;DHT22;1107;48.654;9.250;2023-03-23T09:13:22;15.60;99.90
2202;DHT22;1107;48.654;9.250;2023-03-23T09:15:49;15.80;99.90
2202;DHT22;1107;48.654;9.250;2023-03-23T09:18:17;15.80;99.90
2202;DHT22;1107;48.654;9.250;2023-03-23T09:20:45;15.80;99.90
2202;DHT22;1107;48.654;9.250;2023-03-23T09:23:14;15.60;99.90
2202;DHT22;1107;48.654;9.250;2023-03-23T09:25:41;15.90;99.90
2202;DHT22;1107;48.654;9.250;2023-03-23T09:28:08;16.00;99.90
2202;DHT22;1107;48.654;9.250;2023-03-23T09:30:36;15.80;99.90
2202;DHT22;1107;48.654;9.250;2023-03-23T09:33:05;15.80;99.90
2202;DHT22;1107;48.654;9.250;2023-03-23T09:35:33;15.70;99.90
2202;DHT22;1107;48.654;9.250;2023-03-23T09:38:01;15.60;99.90
2202;DHT22;1107;48.654;9.250;2023-03-23T09:40:33;15.70;99.90
2202;DHT22;1107;48.654;9.250;2023-03-23T09:43:19;15.70;99.90
2202;DHT22;1107;48.654;9.250;2023-03-23T09:45:53;16.00;99.90
2202;DHT22;1107;48.654;9.250;2023-03-23T09:48:29;16.00;99.90
2202;DHT22;1107;48.654;9.250;2023-03-23T09:51:03;16.00;99.90
2202;DHT22;1107;48.654;9.250;2023-03-23T09:53:36;15.90;99.90
2202;DHT22;1107;48.654;9.250;2023-03-23T09:56:10;15.90;99.90
2202;DHT22;1107;48.654;9.250;2023-03-23T09:58:43;15.90;99.90
2202;DHT22;1107;48.654;9.250;2023-03-23T10:01:15;16.00;99.90
2202;DHT22;1107;48.654;9.250;2023-03-23T10:03:45;16.20;99.90
2202;DHT22;1107;48.654;9.250;2023-03-23T10:06:16;16.20;99.90
2202;DHT22;1107;48.654;9.250;2023-03-23T10:08:46;16.30;99.90
2202;DHT22;1107;48.654;9.250;2023-03-23T10:11:22;16.40;99.90
2202;DHT22;1107;48.654;9.250;2023-03-23T10:14:14;16.50;99.90
2202;DHT22;1107;48.654;9.250;2023-03-23T10:16:48;16.70;99.90
2202;DHT22;1107;48.654;9.250;2023-03-23T10:19:20;17.10;99.90
2202;DHT22;1107;48.654;9.250;2023-03-23T10:21:52;17.10;99.90
2202;DHT22;1107;48.654;9.250;2023-03-23T10:24:26;17.10;99.90
2202;DHT22;1107;48.654;9.250;2023-03-23T10:27:04;17.00;99.90
2202;DHT22;1107;48.654;9.250;2023-03-23T10:29:35;16.80;99.90
2202;DHT22;1107;48.654;9.250;2023-03-23T10:32:08;16.80;99.90
2202;DHT22;1107;48.654;9.250;2023-03-23T10:34:42;16.70;99.90
2202;DHT22;1107;48.654;9.250;2023-03-23T10:37:16;16.70;99.90
2202;DHT22;1107;48.654;9.250;2023-03-23T10:39:48;16.70;99.90
2202;DHT22;1107;48.654;9.250;2023-03-23T10:42:25;16.60;99.90
2202;DHT22;1107;48.654;9.250;2023-03-23T10:44:53;16.70;99.90
2202;DHT22;1107;48.654;9.250;2023-03-23T10:47:20;16.80;99.90
2202;DHT22;1107;48.654;9.250;2023-03-23T10:49:50;16.90;99.90
2202;DHT22;1107;48.654;9.250;2023-03-23T10:52:28;17.00;99.90
2202;DHT22;1107;48.654;9.250;2023-03-23T10:55:02;16.80;99.90
2202;DHT22;1107;48.654;9.250;2023-03-23T10:57:30;16.80;99.90
2202;DHT22;1107;48.654;9.250;2023-03-23T11:00:01;16.90;99.90
2202;DHT22;1107;48.654;9.250;2023-03-23T11:02:35;17.00;99.90
2202;DHT22;1107;48.654;9.250;2023-03-23T11:05:06;17.30;99.90
2202;DHT22;1107;48.654;9.250;2023-03-23T11:07:35;17.60;99.90
2202;DHT22;1107;48.654;9.250;2023-03-23T11:10:15;17.90;99.90
2202;DHT22;1107;48.654;9.250;2023-03-23T11:12:44;17.40;99.90
2202;DHT22;1107;48.654;9.250;2023-03-23T11:15:27;17.60;99.90
2202;DHT22;1107;48.654;9.250;2023-03-23T11:17:59;18.10;99.90
2202;DHT22;1107;48.654;9.250;2023-03-23T11:20:28;18.00;99.90
2202;DHT22;1107;48.654;9.250;2023-03-23T11:22:57;17.80;99.90
2202;DHT22;1107;48.654;9.250;2023-03-23T11:25:25;17.80;99.90
2202;DHT22;1107;48.654;9.250;2023-03-23T11:27:53;18.00;99.90
2202;DHT22;1107;48.654;9.250;2023-03-23T11:30:24;18.20;99.90
2202;DHT22;1107;48.654;9.250;2023-03-23T11:32:53;18.10;99.90
2202;DHT22;1107;48.654;9.250;2023-03-23T11:35:23;17.90;99.90
2202;DHT22;1107;48.654;9.250;2023-03-23T11:37:52;18.40;99.90
2202;DHT22;1107;48.654;9.250;2023-03-23T11:40:23;18.30;99.90
2202;DHT22;1107;48.654;9.250;2023-03-23T11:42:58;18.70;99.90
2202;DHT22;1107;48.654;9.250;2023-03-23T11:45:32;19.10;99.90
2202;DHT22;1107;48.654;9.250;2023-03-23T11:48:12;19.30;99.90
2202;DHT22;1107;48.654;9.250;2023-03-23T11:50:48;19.30;99.90
2202;DHT22;1107;48.654;9.250;2023-03-23T11:53:24;19.30;99.90
2202;DHT22;1107;48.654;9.250;2023-03-23T11:56:00;19.20;99.90
2202;DHT22;1107;48.654;9.250;2023-03-23T11:58:28;18.70;99.90
2202;DHT22;1107;48.654;9.250;2023-03-23T12:01:02;18.60;99.90
2202;DHT22;1107;48.654;9.250;2023-03-23T12:04:00;18.20;99.90
2202;DHT22;1107;48.654;9.250;2023-03-23T12:06:35;18.30;99.90
2202;DHT22;1107;48.654;9.250;2023-03-23T12:09:15;18.10;99.90
2202;DHT22;1107;48.654;9.250;2023-03-23T12:11:58;17.70;99.90
2202;DHT22;1107;48.654;9.250;2023-03-23T12:14:34;17.70;99.90
2202;DHT22;1107;48.654;9.250;2023-03-23T12:17:14;17.80;99.90
2202;DHT22;1107;48.654;9.250;2023-03-23T12:19:47;18.00;99.90
2202;DHT22;1107;48.654;9.250;2023-03-23T12:22:28;18.00;99.90
2202;DHT22;1107;48.654;9.250;2023-03-23T12:25:09;18.00;99.90
2202;DHT22;1107;48.654;9.250;2023-03-23T12:27:48;18.00;99.90
2202;DHT22;1107;48.654;9.250;2023-03-23T12:30:29;18.10;99.90
2202;DHT22;1107;48.654;9.250;2023-03-23T12:33:13;18.10;99.90
2202;DHT22;1107;48.654;9.250;2023-03-23T12:35:54;18.10;99.90
2202;DHT22;1107;48.654;9.250;2023-03-23T12:41:36;17.90;99.90
2202;DHT22;1107;48.654;9.250;2023-03-23T12:44:08;17.70;99.90
2202;DHT22;1107;48.654;9.250;2023-03-23T12:47:01;17.60;99.90
2202;DHT22;1107;48.654;9.250;2023-03-23T12:49:35;17.50;99.90
2202;DHT22;1107;48.654;9.250;2023-03-23T12:52:09;17.50;99.90
2202;DHT22;1107;48.654;9.250;2023-03-23T12:54:41;17.70;99.90
2202;DHT22;1107;48.654;9.250;2023-03-23T12:57:17;17.80;99.90
2202;DHT22;1107;48.654;9.250;2023-03-23T12:59:49;17.80;99.90
2202;DHT22;1107;48.654;9.250;2023-03-23T13:02:21;17.80;99.90
2202;DHT22;1107;48.654;9.250;2023-03-23T13:04:52;17.80;99.90
2202;DHT22;1107;48.654;9.250;2023-03-23T13:07:26;17.90;99.90
2202;DHT22;1107;48.654;9.250;2023-03-23T13:10:03;17.80;99.90
2202;DHT22;1107;48.654;9.250;2023-03-23T13:12:32;18.00;99.90
2202;DHT22;1107;48.654;9.250;2023-03-23T13:15:18;18.10;99.90
2202;DHT22;1107;48.654;9.250;2023-03-23T13:17:51;18.10;99.90
2202;DHT22;1107;48.654;9.250;2023-03-23T13:20:45;18.30;99.90
2202;DHT22;1107;48.654;9.250;2023-03-23T13:23:17;18.10;99.90
2202;DHT22;1107;48.654;9.250;2023-03-23T13:25:55;18.30;99.90
2202;DHT22;1107;48.654;9.250;2023-03-23T13:28:24;18.30;99.90
2202;DHT22;1107;48.654;9.250;2023-03-23T13:30:59;18.50;99.90
2202;DHT22;1107;48.654;9.250;2023-03-23T13:33:33;18.60;99.90
2202;DHT22;1107;48.654;9.250;2023-03-23T13:36:08;18.70;99.90
2202;DHT22;1107;48.654;9.250;2023-03-23T13:38:37;18.50;99.90
2202;DHT22;1107;48.654;9.250;2023-03-23T13:41:09;18.40;99.90
2202;DHT22;1107;48.654;9.250;2023-03-23T13:43:39;18.30;99.90
2202;DHT22;1107;48.654;9.250;2023-03-23T13:46:10;18.20;99.90
2202;DHT22;1107;48.654;9.250;2023-03-23T13:48:45;17.90;99.90
2202;DHT22;1107;48.654;9.250;2023-03-23T13:51:34;18.10;99.90
2202;DHT22;1107;48.654;9.250;2023-03-23T13:54:13;18.10;99.90
2202;DHT22;1107;48.654;9.250;2023-03-23T13:56:43;18.00;99.90
2202;DHT22;1107;48.654;9.250;2023-03-23T13:59:15;18.00;99.90
2202;DHT22;1107;48.654;9.250;2023-03-23T14:01:44;17.80;99.90
2202;DHT22;1107;48.654;9.250;2023-03-23T14:04:14;17.90;99.90
2202;DHT22;1107;48.654;9.250;2023-03-23T14:06:44;18.00;99.90
2202;DHT22;1107;48.654;9.250;2023-03-23T14:09:15;17.70;99.90
2202;DHT22;1107;48.654;9.250;2023-03-23T14:11:49;17.70;99.90
2202;DHT22;1107;48.654;9.250;2023-03-23T14:14:23;17.40;99.90
2202;DHT22;1107;48.654;9.250;2023-03-23T14:16:52;17.40;99.90
2202;DHT22;1107;48.654;9.250;2023-03-23T14:19:23;17.30;99.90
2202;DHT22;1107;48.654;9.250;2023-03-23T14:21:53;17.20;99.90
2202;DHT22;1107;48.654;9.250;2023-03-23T14:24:23;17.40;99.90
2202;DHT22;1107;48.654;9.250;2023-03-23T14:26:51;17.50;99.90
2202;DHT22;1107;48.654;9.250;2023-03-23T14:29:20;17.50;99.90
2202;DHT22;1107;48.654;9.250;2023-03-23T14:31:53;17.30;99.90
2202;DHT22;1107;48.654;9.250;2023-03-23T14:34:23;17.20;99.90
2202;DHT22;1107;48.654;9.250;2023-03-23T14:36:53;17.20;99.90
2202;DHT22;1107;48.654;9.250;2023-03-23T14:39:23;17.00;99.90
2202;DHT22;1107;48.654;9.250;2023-03-23T14:41:52;17.10;99.90
2202;DHT22;1107;48.654;9.250;2023-03-23T14:44:24;17.20;99.90
2202;DHT22;1107;48.654;9.250;2023-03-23T14:46:54;17.10;99.90
2202;DHT22;1107;48.654;9.250;2023-03-23T14:49:29;17.10;99.90
2202;DHT22;1107;48.654;9.250;2023-03-23T14:51:56;17.10;99.90
2202;DHT22;1107;48.654;9.250;2023-03-23T14:54:25;17.10;99.90
2202;DHT22;1107;48.654;9.250;2023-03-23T14:56:53;17.00;99.90
2202;DHT22;1107;48.654;9.250;2023-03-23T14:59:20;17.00;99.90
2202;DHT22;1107;48.654;9.250;2023-03-23T15:01:50;17.00;99.90
2202;DHT22;1107;48.654;9.250;2023-03-23T15:04:20;17.10;99.90
2202;DHT22;1107;48.654;9.250;2023-03-23T15:06:50;17.00;99.90
2202;DHT22;1107;48.654;9.250;2023-03-23T15:09:21;16.90;99.90
2202;DHT22;1107;48.654;9.250;2023-03-23T15:11:54;17.00;99.90
2202;DHT22;1107;48.654;9.250;2023-03-23T15:14:24;17.10;99.90
2202;DHT22;1107;48.654;9.250;2023-03-23T15:16:54;17.10;99.90
2202;DHT22;1107;48.654;9.250;2023-03-23T15:19:27;17.00;99.90
2202;DHT22;1107;48.654;9.250;2023-03-23T15:21:56;17.10;99.90
2202;DHT22;1107;48.654;9.250;2023-03-23T15:24:32;17.10;99.90
2202;DHT22;1107;48.654;9.250;2023-03-23T15:27:10;17.00;99.90
2202;DHT22;1107;48.654;9.250;2023-03-23T15:29:47;16.90;99.90
2202;DHT22;1107;48.654;9.250;2023-03-23T15:32:24;17.00;99.90
2202;DHT22;1107;48.654;9.250;2023-03-23T15:34:53;17.00;99.90
2202;DHT22;1107;48.654;9.250;2023-03-23T15:37:24;16.80;99.90
2202;DHT22;1107;48.654;9.250;2023-03-23T15:39:52;16.80;99.90
2202;DHT22;1107;48.654;9.250;2023-03-23T15:42:27;16.70;99.90
2202;DHT22;1107;48.654;9.250;2023-03-23T15:44:56;16.70;99.90
2202;DHT22;1107;48.654;9.250;2023-03-23T15:47:34;16.70;99.90
2202;DHT22;1107;48.654;9.250;2023-03-23T15:50:09;16.60;99.90
2202;DHT22;1107;48.654;9.250;2023-03-23T15:52:38;16.60;99.90
2202;DHT22;1107;48.654;9.250;2023-03-23T15:55:21;16.50;99.90
2202;DHT22;1107;48.654;9.250;2023-03-23T15:57:48;16.40;99.90
2202;DHT22;1107;48.654;9.250;2023-03-23T16:00:17;16.40;99.90
2202;DHT22;1107;48.654;9.250;2023-03-23T16:02:45;16.40;99.90
2202;DHT22;1107;48.654;9.250;2023-03-23T16:05:14;16.40;99.90
2202;DHT22;1107;48.654;9.250;2023-03-23T16:07:41;16.40;99.90
2202;DHT22;1107;48.654;9.250;2023-03-23T16:10:15;16.30;99.90
2202;DHT22;1107;48.654;9.250;2023-03-23T16:12:42;16.30;99.90
2202;DHT22;1107;48.654;9.250;2023-03-23T16:15:09;16.20;99.90
2202;DHT22;1107;48.654;9.250;2023-03-23T16:17:36;16.20;99.90
2202;DHT22;1107;48.654;9.250;2023-03-23T16:20:10;16.20;99.90
2202;DHT22;1107;48.654;9.250;2023-03-23T16:22:39;16.20;99.90
2202;DHT22;1107;48.654;9.250;2023-03-23T16:25:07;16.10;99.90
2202;DHT22;1107;48.654;9.250;2023-03-23T16:27:34;16.10;99.90
2202;DHT22;1107;48.654;9.250;2023-03-23T16:30:04;16.10;99.90